LFGJ/DLE METAR and TAF weather

Enter ICAO airport designator
Station Type Date Time Source
LFGJ METAR 2021/07/28 05:00 UTC NOAA

LFGJ 280500Z AUTO 00000KT 8000 BKN035 OVC058 16/16 Q1015


Station Type Date Time Source
LFGJ Decoded METAR 2021/07/28 05:00 UTC NOAA

Dole Tavaux, France (LFGJ) 47-02-34N 005-26-06E
Jul 28, 2021 - 01:00 AM EDT / 2021.07.28 0500 UTC
Wind: Calm:0
Visibility: 4 mile(s):0
Sky conditions: overcast
Temperature: 60 F (16 C)
Dew Point: 60 F (16 C)
Relative Humidity: 100%
Pressure (altimeter): 29.97 in. Hg (1015 hPa)
ob: LFGJ 280500Z AUTO 00000KT 8000 BKN035 OVC058 16/16 Q1015
cycle: 5

Station Type Date Time Source
LFGJ TAF 2020/06/22 09:21 UTC NOAA

TAF LFGJ 220800Z 2209/2221 01008KT 9999 FEW035 BKN053
BECMG 2212/2215 CAVOK

Example: see airport list